sensor_id;sensor_type;location;lat;lon;timestamp;P1;durP1;ratioP1;P2;durP2;ratioP2
52208;SDS011;38507;53.132;6.394;2023-03-23T00:01:21;15.88;;;10.48;;
52208;SDS011;38507;53.132;6.394;2023-03-23T00:03:50;16.63;;;11.75;;
52208;SDS011;38507;53.132;6.394;2023-03-23T00:06:18;19.50;;;10.32;;
52208;SDS011;38507;53.132;6.394;2023-03-23T00:08:45;18.75;;;11.32;;
52208;SDS011;38507;53.132;6.394;2023-03-23T00:11:16;20.58;;;12.48;;
52208;SDS011;38507;53.132;6.394;2023-03-23T00:13:47;20.55;;;12.15;;
52208;SDS011;38507;53.132;6.394;2023-03-23T00:16:18;19.25;;;12.20;;
52208;SDS011;38507;53.132;6.394;2023-03-23T00:18:45;19.95;;;12.55;;
52208;SDS011;38507;53.132;6.394;2023-03-23T00:21:24;18.48;;;13.63;;
52208;SDS011;38507;53.132;6.394;2023-03-23T00:24:05;20.58;;;14.32;;
52208;SDS011;38507;53.132;6.394;2023-03-23T00:26:35;21.17;;;13.05;;
52208;SDS011;38507;53.132;6.394;2023-03-23T00:29:05;18.88;;;11.88;;
52208;SDS011;38507;53.132;6.394;2023-03-23T00:31:32;21.73;;;14.13;;
52208;SDS011;38507;53.132;6.394;2023-03-23T00:34:00;23.00;;;14.75;;
52208;SDS011;38507;53.132;6.394;2023-03-23T00:36:29;21.08;;;13.70;;
52208;SDS011;38507;53.132;6.394;2023-03-23T00:38:55;20.20;;;13.05;;
52208;SDS011;38507;53.132;6.394;2023-03-23T00:41:23;19.80;;;12.82;;
52208;SDS011;38507;53.132;6.394;2023-03-23T00:43:52;18.25;;;11.77;;
52208;SDS011;38507;53.132;6.394;2023-03-23T00:46:21;19.08;;;11.20;;
52208;SDS011;38507;53.132;6.394;2023-03-23T00:48:47;14.20;;;9.15;;
52208;SDS011;38507;53.132;6.394;2023-03-23T00:51:15;10.93;;;6.70;;
52208;SDS011;38507;53.132;6.394;2023-03-23T00:53:41;9.75;;;4.70;;
52208;SDS011;38507;53.132;6.394;2023-03-23T00:56:08;9.30;;;3.50;;
52208;SDS011;38507;53.132;6.394;2023-03-23T00:58:34;4.97;;;2.42;;
52208;SDS011;38507;53.132;6.394;2023-03-23T01:01:00;6.15;;;3.03;;
52208;SDS011;38507;53.132;6.394;2023-03-23T01:03:26;4.43;;;2.30;;
52208;SDS011;38507;53.132;6.394;2023-03-23T01:05:53;5.10;;;2.35;;
52208;SDS011;38507;53.132;6.394;2023-03-23T01:08:20;6.85;;;2.38;;
52208;SDS011;38507;53.132;6.394;2023-03-23T01:10:47;4.88;;;2.47;;
52208;SDS011;38507;53.132;6.394;2023-03-23T01:13:14;5.53;;;2.60;;
52208;SDS011;38507;53.132;6.394;2023-03-23T01:15:41;6.63;;;2.83;;
52208;SDS011;38507;53.132;6.394;2023-03-23T01:18:07;7.43;;;3.10;;
52208;SDS011;38507;53.132;6.394;2023-03-23T01:20:33;7.35;;;4.05;;
52208;SDS011;38507;53.132;6.394;2023-03-23T01:23:00;8.40;;;4.50;;
52208;SDS011;38507;53.132;6.394;2023-03-23T01:25:30;7.82;;;4.90;;
52208;SDS011;38507;53.132;6.394;2023-03-23T01:27:57;9.10;;;5.80;;
52208;SDS011;38507;53.132;6.394;2023-03-23T01:30:23;11.40;;;7.20;;
52208;SDS011;38507;53.132;6.394;2023-03-23T01:32:50;10.68;;;6.97;;
52208;SDS011;38507;53.132;6.394;2023-03-23T01:35:16;10.73;;;7.15;;
52208;SDS011;38507;53.132;6.394;2023-03-23T01:37:42;13.27;;;6.60;;
52208;SDS011;38507;53.132;6.394;2023-03-23T01:40:08;16.10;;;6.90;;
52208;SDS011;38507;53.132;6.394;2023-03-23T01:42:36;12.18;;;7.13;;
52208;SDS011;38507;53.132;6.394;2023-03-23T01:48:00;10.32;;;6.38;;
52208;SDS011;38507;53.132;6.394;2023-03-23T01:50:44;14.93;;;6.93;;
52208;SDS011;38507;53.132;6.394;2023-03-23T01:53:19;16.88;;;7.25;;
52208;SDS011;38507;53.132;6.394;2023-03-23T01:55:47;13.27;;;6.70;;
52208;SDS011;38507;53.132;6.394;2023-03-23T01:58:17;12.85;;;6.22;;
52208;SDS011;38507;53.132;6.394;2023-03-23T02:00:45;13.50;;;6.43;;
52208;SDS011;38507;53.132;6.394;2023-03-23T02:03:13;12.80;;;6.25;;
52208;SDS011;38507;53.132;6.394;2023-03-23T02:05:42;15.73;;;6.05;;
52208;SDS011;38507;53.132;6.394;2023-03-23T02:08:08;13.10;;;6.05;;
52208;SDS011;38507;53.132;6.394;2023-03-23T02:10:35;12.82;;;5.10;;
52208;SDS011;38507;53.132;6.394;2023-03-23T02:13:03;10.10;;;5.80;;
52208;SDS011;38507;53.132;6.394;2023-03-23T02:15:38;11.00;;;5.78;;
52208;SDS011;38507;53.132;6.394;2023-03-23T02:18:14;11.32;;;5.22;;
52208;SDS011;38507;53.132;6.394;2023-03-23T02:31:53;8.95;;;4.47;;
52208;SDS011;38507;53.132;6.394;2023-03-23T02:40:07;12.20;;;4.85;;
52208;SDS011;38507;53.132;6.394;2023-03-23T02:42:38;9.40;;;4.45;;
52208;SDS011;38507;53.132;6.394;2023-03-23T02:45:09;10.05;;;4.38;;
52208;SDS011;38507;53.132;6.394;2023-03-23T02:47:37;11.90;;;4.38;;
52208;SDS011;38507;53.132;6.394;2023-03-23T02:50:05;15.68;;;4.70;;
52208;SDS011;38507;53.132;6.394;2023-03-23T02:52:35;11.93;;;4.68;;
52208;SDS011;38507;53.132;6.394;2023-03-23T02:55:03;9.95;;;4.18;;
52208;SDS011;38507;53.132;6.394;2023-03-23T02:57:30;10.23;;;4.75;;
52208;SDS011;38507;53.132;6.394;2023-03-23T02:59:56;10.23;;;4.88;;
52208;SDS011;38507;53.132;6.394;2023-03-23T03:02:27;8.23;;;4.05;;
52208;SDS011;38507;53.132;6.394;2023-03-23T03:05:05;6.60;;;4.05;;
52208;SDS011;38507;53.132;6.394;2023-03-23T03:07:51;10.27;;;4.30;;
52208;SDS011;38507;53.132;6.394;2023-03-23T03:10:28;10.35;;;4.25;;
52208;SDS011;38507;53.132;6.394;2023-03-23T03:13:12;7.93;;;3.58;;
52208;SDS011;38507;53.132;6.394;2023-03-23T03:15:53;8.05;;;4.20;;
52208;SDS011;38507;53.132;6.394;2023-03-23T03:21:23;10.52;;;4.10;;
52208;SDS011;38507;53.132;6.394;2023-03-23T03:23:53;7.82;;;4.03;;
52208;SDS011;38507;53.132;6.394;2023-03-23T03:26:24;11.30;;;4.28;;
52208;SDS011;38507;53.132;6.394;2023-03-23T03:28:51;7.88;;;3.90;;
52208;SDS011;38507;53.132;6.394;2023-03-23T03:31:20;12.70;;;4.05;;
52208;SDS011;38507;53.132;6.394;2023-03-23T03:33:51;8.80;;;3.88;;
52208;SDS011;38507;53.132;6.394;2023-03-23T03:36:21;9.15;;;4.38;;
52208;SDS011;38507;53.132;6.394;2023-03-23T03:38:50;8.73;;;3.78;;
52208;SDS011;38507;53.132;6.394;2023-03-23T03:41:17;9.57;;;3.83;;
52208;SDS011;38507;53.132;6.394;2023-03-23T03:43:44;7.20;;;3.80;;
52208;SDS011;38507;53.132;6.394;2023-03-23T03:46:10;7.03;;;3.78;;
52208;SDS011;38507;53.132;6.394;2023-03-23T03:48:35;10.75;;;3.88;;
52208;SDS011;38507;53.132;6.394;2023-03-23T03:51:01;10.23;;;3.75;;
52208;SDS011;38507;53.132;6.394;2023-03-23T03:53:27;9.68;;;3.95;;
52208;SDS011;38507;53.132;6.394;2023-03-23T03:55:53;7.65;;;3.17;;
52208;SDS011;38507;53.132;6.394;2023-03-23T03:58:25;6.63;;;2.70;;
52208;SDS011;38507;53.132;6.394;2023-03-23T04:00:56;7.43;;;3.10;;
52208;SDS011;38507;53.132;6.394;2023-03-23T04:03:23;3.22;;;1.33;;
52208;SDS011;38507;53.132;6.394;2023-03-23T04:05:50;7.47;;;2.53;;
52208;SDS011;38507;53.132;6.394;2023-03-23T04:08:16;7.53;;;1.70;;
52208;SDS011;38507;53.132;6.394;2023-03-23T04:10:42;4.05;;;1.27;;
52208;SDS011;38507;53.132;6.394;2023-03-23T04:13:08;3.63;;;1.00;;
52208;SDS011;38507;53.132;6.394;2023-03-23T04:15:34;4.38;;;0.60;;
52208;SDS011;38507;53.132;6.394;2023-03-23T04:18:00;3.78;;;0.70;;
52208;SDS011;38507;53.132;6.394;2023-03-23T04:20:25;4.93;;;0.80;;
52208;SDS011;38507;53.132;6.394;2023-03-23T04:22:52;1.88;;;0.93;;
52208;SDS011;38507;53.132;6.394;2023-03-23T04:25:20;3.40;;;0.80;;
52208;SDS011;38507;53.132;6.394;2023-03-23T04:27:50;4.60;;;1.17;;
52208;SDS011;38507;53.132;6.394;2023-03-23T04:30:21;7.35;;;1.40;;
52208;SDS011;38507;53.132;6.394;2023-03-23T04:32:49;9.63;;;2.63;;
52208;SDS011;38507;53.132;6.394;2023-03-23T04:35:17;5.20;;;2.33;;
52208;SDS011;38507;53.132;6.394;2023-03-23T04:37:44;7.13;;;1.73;;
52208;SDS011;38507;53.132;6.394;2023-03-23T04:40:11;4.05;;;1.02;;
52208;SDS011;38507;53.132;6.394;2023-03-23T04:42:39;5.03;;;2.05;;
52208;SDS011;38507;53.132;6.394;2023-03-23T04:45:07;5.68;;;1.80;;
52208;SDS011;38507;53.132;6.394;2023-03-23T04:47:36;4.15;;;1.20;;
52208;SDS011;38507;53.132;6.394;2023-03-23T04:50:11;6.15;;;1.27;;
52208;SDS011;38507;53.132;6.394;2023-03-23T04:52:38;5.72;;;1.63;;
52208;SDS011;38507;53.132;6.394;2023-03-23T04:55:06;7.65;;;1.75;;
52208;SDS011;38507;53.132;6.394;2023-03-23T04:57:33;6.93;;;1.83;;
52208;SDS011;38507;53.132;6.394;2023-03-23T05:00:00;9.65;;;2.45;;
52208;SDS011;38507;53.132;6.394;2023-03-23T05:02:26;8.35;;;2.10;;
52208;SDS011;38507;53.132;6.394;2023-03-23T05:04:55;11.75;;;2.75;;
52208;SDS011;38507;53.132;6.394;2023-03-23T05:07:22;11.10;;;3.78;;
52208;SDS011;38507;53.132;6.394;2023-03-23T05:09:48;9.45;;;3.03;;
52208;SDS011;38507;53.132;6.394;2023-03-23T05:12:15;9.23;;;3.42;;
52208;SDS011;38507;53.132;6.394;2023-03-23T05:14:42;10.18;;;2.80;;
52208;SDS011;38507;53.132;6.394;2023-03-23T05:17:08;10.38;;;2.92;;
52208;SDS011;38507;53.132;6.394;2023-03-23T05:19:34;12.23;;;2.97;;
52208;SDS011;38507;53.132;6.394;2023-03-23T05:22:01;14.68;;;3.17;;
52208;SDS011;38507;53.132;6.394;2023-03-23T05:24:28;11.82;;;4.07;;
52208;SDS011;38507;53.132;6.394;2023-03-23T05:26:58;17.02;;;3.67;;
52208;SDS011;38507;53.132;6.394;2023-03-23T05:29:24;11.90;;;2.15;;
52208;SDS011;38507;53.132;6.394;2023-03-23T05:31:50;15.43;;;2.90;;
52208;SDS011;38507;53.132;6.394;2023-03-23T05:34:18;12.45;;;2.65;;
52208;SDS011;38507;53.132;6.394;2023-03-23T05:36:44;11.25;;;2.55;;
52208;SDS011;38507;53.132;6.394;2023-03-23T05:39:10;19.70;;;2.70;;
52208;SDS011;38507;53.132;6.394;2023-03-23T05:41:36;16.48;;;2.78;;
52208;SDS011;38507;53.132;6.394;2023-03-23T05:44:02;16.33;;;2.88;;
52208;SDS011;38507;53.132;6.394;2023-03-23T05:46:28;17.15;;;2.72;;
52208;SDS011;38507;53.132;6.394;2023-03-23T05:48:54;16.48;;;3.38;;
52208;SDS011;38507;53.132;6.394;2023-03-23T05:51:20;21.35;;;2.78;;
52208;SDS011;38507;53.132;6.394;2023-03-23T05:53:45;22.67;;;2.47;;
52208;SDS011;38507;53.132;6.394;2023-03-23T05:56:12;15.82;;;3.92;;
52208;SDS011;38507;53.132;6.394;2023-03-23T05:58:38;11.85;;;2.65;;
52208;SDS011;38507;53.132;6.394;2023-03-23T06:01:07;19.67;;;3.22;;
52208;SDS011;38507;53.132;6.394;2023-03-23T06:03:32;15.35;;;2.72;;
52208;SDS011;38507;53.132;6.394;2023-03-23T06:06:01;14.65;;;2.70;;
52208;SDS011;38507;53.132;6.394;2023-03-23T06:08:28;17.63;;;2.95;;
52208;SDS011;38507;53.132;6.394;2023-03-23T06:10:53;17.10;;;2.72;;
52208;SDS011;38507;53.132;6.394;2023-03-23T06:13:20;17.80;;;3.33;;
52208;SDS011;38507;53.132;6.394;2023-03-23T06:15:46;16.60;;;3.08;;
52208;SDS011;38507;53.132;6.394;2023-03-23T06:18:12;19.67;;;3.38;;
52208;SDS011;38507;53.132;6.394;2023-03-23T06:20:38;16.38;;;2.75;;
52208;SDS011;38507;53.132;6.394;2023-03-23T06:23:05;21.50;;;3.95;;
52208;SDS011;38507;53.132;6.394;2023-03-23T06:25:31;24.42;;;3.35;;
52208;SDS011;38507;53.132;6.394;2023-03-23T06:27:58;25.40;;;4.18;;
52208;SDS011;38507;53.132;6.394;2023-03-23T06:30:24;21.90;;;3.88;;
52208;SDS011;38507;53.132;6.394;2023-03-23T06:32:50;18.05;;;3.42;;
52208;SDS011;38507;53.132;6.394;2023-03-23T06:35:16;26.73;;;5.13;;
52208;SDS011;38507;53.132;6.394;2023-03-23T06:37:41;19.33;;;3.35;;
52208;SDS011;38507;53.132;6.394;2023-03-23T06:40:07;22.95;;;2.78;;
52208;SDS011;38507;53.132;6.394;2023-03-23T06:42:35;7.93;;;1.40;;
52208;SDS011;38507;53.132;6.394;2023-03-23T06:45:02;12.98;;;2.03;;
52208;SDS011;38507;53.132;6.394;2023-03-23T06:47:29;8.40;;;1.58;;
52208;SDS011;38507;53.132;6.394;2023-03-23T06:49:56;10.68;;;2.13;;
52208;SDS011;38507;53.132;6.394;2023-03-23T06:52:22;18.42;;;2.72;;
52208;SDS011;38507;53.132;6.394;2023-03-23T06:54:48;9.13;;;1.58;;
52208;SDS011;38507;53.132;6.394;2023-03-23T06:57:15;10.38;;;1.95;;
52208;SDS011;38507;53.132;6.394;2023-03-23T06:59:41;8.20;;;1.85;;
52208;SDS011;38507;53.132;6.394;2023-03-23T07:02:08;10.57;;;1.75;;
52208;SDS011;38507;53.132;6.394;2023-03-23T07:04:39;16.73;;;2.63;;
52208;SDS011;38507;53.132;6.394;2023-03-23T07:07:05;13.60;;;3.10;;
52208;SDS011;38507;53.132;6.394;2023-03-23T07:09:36;16.73;;;2.67;;
52208;SDS011;38507;53.132;6.394;2023-03-23T07:12:02;20.98;;;3.65;;
52208;SDS011;38507;53.132;6.394;2023-03-23T07:14:27;20.38;;;3.40;;
52208;SDS011;38507;53.132;6.394;2023-03-23T07:16:54;20.63;;;3.30;;
52208;SDS011;38507;53.132;6.394;2023-03-23T07:19:19;13.30;;;2.80;;
52208;SDS011;38507;53.132;6.394;2023-03-23T07:21:45;27.25;;;4.20;;
52208;SDS011;38507;53.132;6.394;2023-03-23T07:24:11;16.45;;;3.33;;
52208;SDS011;38507;53.132;6.394;2023-03-23T07:26:41;23.75;;;4.45;;
52208;SDS011;38507;53.132;6.394;2023-03-23T07:29:08;28.38;;;3.80;;
52208;SDS011;38507;53.132;6.394;2023-03-23T07:31:34;23.05;;;3.45;;
52208;SDS011;38507;53.132;6.394;2023-03-23T07:34:01;23.85;;;3.90;;
52208;SDS011;38507;53.132;6.394;2023-03-23T07:36:28;22.90;;;3.67;;
52208;SDS011;38507;53.132;6.394;2023-03-23T07:38:54;17.23;;;3.22;;
52208;SDS011;38507;53.132;6.394;2023-03-23T07:41:20;24.17;;;3.83;;
52208;SDS011;38507;53.132;6.394;2023-03-23T07:43:45;18.75;;;3.10;;
52208;SDS011;38507;53.132;6.394;2023-03-23T07:46:11;27.52;;;6.13;;
52208;SDS011;38507;53.132;6.394;2023-03-23T07:48:38;18.55;;;3.50;;
52208;SDS011;38507;53.132;6.394;2023-03-23T07:51:04;31.90;;;4.10;;
52208;SDS011;38507;53.132;6.394;2023-03-23T07:53:30;24.75;;;4.00;;
52208;SDS011;38507;53.132;6.394;2023-03-23T07:55:57;28.67;;;5.07;;
52208;SDS011;38507;53.132;6.394;2023-03-23T07:58:22;24.23;;;4.35;;
52208;SDS011;38507;53.132;6.394;2023-03-23T08:00:48;17.15;;;3.58;;
52208;SDS011;38507;53.132;6.394;2023-03-23T08:03:15;23.58;;;4.00;;
52208;SDS011;38507;53.132;6.394;2023-03-23T08:05:41;25.23;;;4.80;;
52208;SDS011;38507;53.132;6.394;2023-03-23T08:08:08;31.63;;;4.25;;
52208;SDS011;38507;53.132;6.394;2023-03-23T08:10:34;29.33;;;3.95;;
52208;SDS011;38507;53.132;6.394;2023-03-23T08:13:00;21.52;;;3.03;;
52208;SDS011;38507;53.132;6.394;2023-03-23T08:15:27;34.35;;;4.05;;
52208;SDS011;38507;53.132;6.394;2023-03-23T08:17:53;22.23;;;4.32;;
52208;SDS011;38507;53.132;6.394;2023-03-23T08:20:20;24.25;;;4.20;;
52208;SDS011;38507;53.132;6.394;2023-03-23T08:22:53;28.10;;;4.57;;
52208;SDS011;38507;53.132;6.394;2023-03-23T08:25:20;28.33;;;3.72;;
52208;SDS011;38507;53.132;6.394;2023-03-23T08:27:47;27.08;;;4.10;;
52208;SDS011;38507;53.132;6.394;2023-03-23T08:30:14;31.30;;;4.30;;
52208;SDS011;38507;53.132;6.394;2023-03-23T08:32:42;24.42;;;4.10;;
52208;SDS011;38507;53.132;6.394;2023-03-23T08:35:08;29.77;;;5.47;;
52208;SDS011;38507;53.132;6.394;2023-03-23T08:37:35;24.85;;;4.43;;
52208;SDS011;38507;53.132;6.394;2023-03-23T08:40:02;29.58;;;4.43;;
52208;SDS011;38507;53.132;6.394;2023-03-23T08:42:38;29.88;;;4.65;;
52208;SDS011;38507;53.132;6.394;2023-03-23T08:45:05;28.98;;;4.72;;
52208;SDS011;38507;53.132;6.394;2023-03-23T08:47:32;26.77;;;5.03;;
52208;SDS011;38507;53.132;6.394;2023-03-23T08:50:02;27.17;;;3.92;;
52208;SDS011;38507;53.132;6.394;2023-03-23T08:52:30;28.42;;;4.55;;
52208;SDS011;38507;53.132;6.394;2023-03-23T08:54:56;41.33;;;4.80;;
52208;SDS011;38507;53.132;6.394;2023-03-23T08:57:22;31.55;;;4.95;;
52208;SDS011;38507;53.132;6.394;2023-03-23T08:59:49;24.45;;;3.97;;
52208;SDS011;38507;53.132;6.394;2023-03-23T09:02:15;32.20;;;5.18;;
52208;SDS011;38507;53.132;6.394;2023-03-23T09:04:41;29.08;;;4.47;;
52208;SDS011;38507;53.132;6.394;2023-03-23T09:07:10;26.67;;;4.75;;
52208;SDS011;38507;53.132;6.394;2023-03-23T09:09:39;24.23;;;4.28;;
52208;SDS011;38507;53.132;6.394;2023-03-23T09:12:08;23.17;;;4.53;;
52208;SDS011;38507;53.132;6.394;2023-03-23T09:14:37;33.85;;;4.63;;
52208;SDS011;38507;53.132;6.394;2023-03-23T09:17:04;29.65;;;5.45;;
52208;SDS011;38507;53.132;6.394;2023-03-23T09:19:30;28.75;;;4.80;;
52208;SDS011;38507;53.132;6.394;2023-03-23T09:21:58;33.97;;;4.75;;
52208;SDS011;38507;53.132;6.394;2023-03-23T09:24:24;27.35;;;4.55;;
52208;SDS011;38507;53.132;6.394;2023-03-23T09:26:50;29.38;;;4.25;;
52208;SDS011;38507;53.132;6.394;2023-03-23T09:29:16;28.92;;;5.13;;
52208;SDS011;38507;53.132;6.394;2023-03-23T09:31:43;15.23;;;3.70;;
52208;SDS011;38507;53.132;6.394;2023-03-23T09:34:11;30.13;;;4.93;;
52208;SDS011;38507;53.132;6.394;2023-03-23T09:36:40;23.85;;;4.22;;
52208;SDS011;38507;53.132;6.394;2023-03-23T09:39:08;24.13;;;4.43;;
52208;SDS011;38507;53.132;6.394;2023-03-23T09:44:17;36.75;;;4.80;;
52208;SDS011;38507;53.132;6.394;2023-03-23T09:47:30;22.63;;;4.40;;
52208;SDS011;38507;53.132;6.394;2023-03-23T09:50:26;25.85;;;4.03;;
52208;SDS011;38507;53.132;6.394;2023-03-23T09:52:58;29.02;;;5.00;;
52208;SDS011;38507;53.132;6.394;2023-03-23T09:55:46;30.65;;;4.78;;
52208;SDS011;38507;53.132;6.394;2023-03-23T10:01:04;26.38;;;4.18;;
52208;SDS011;38507;53.132;6.394;2023-03-23T10:03:40;30.95;;;5.63;;
52208;SDS011;38507;53.132;6.394;2023-03-23T10:06:09;25.33;;;4.57;;
52208;SDS011;38507;53.132;6.394;2023-03-23T10:08:38;28.35;;;4.60;;
52208;SDS011;38507;53.132;6.394;2023-03-23T10:11:13;23.52;;;4.00;;
52208;SDS011;38507;53.132;6.394;2023-03-23T10:16:25;24.42;;;4.22;;
52208;SDS011;38507;53.132;6.394;2023-03-23T10:21:41;27.23;;;4.47;;
52208;SDS011;38507;53.132;6.394;2023-03-23T10:24:16;16.92;;;3.20;;
52208;SDS011;38507;53.132;6.394;2023-03-23T10:29:35;32.25;;;4.85;;
52208;SDS011;38507;53.132;6.394;2023-03-23T10:34:47;25.90;;;4.55;;
52208;SDS011;38507;53.132;6.394;2023-03-23T10:37:21;20.67;;;3.50;;
52208;SDS011;38507;53.132;6.394;2023-03-23T10:39:53;20.50;;;3.03;;
52208;SDS011;38507;53.132;6.394;2023-03-23T10:42:23;23.33;;;3.67;;
52208;SDS011;38507;53.132;6.394;2023-03-23T10:44:51;20.83;;;3.80;;
52208;SDS011;38507;53.132;6.394;2023-03-23T10:47:18;15.80;;;3.28;;
52208;SDS011;38507;53.132;6.394;2023-03-23T10:49:54;22.90;;;3.08;;
52208;SDS011;38507;53.132;6.394;2023-03-23T10:57:35;17.40;;;3.25;;
52208;SDS011;38507;53.132;6.394;2023-03-23T11:00:22;22.23;;;4.10;;
52208;SDS011;38507;53.132;6.394;2023-03-23T11:03:20;19.83;;;3.55;;
52208;SDS011;38507;53.132;6.394;2023-03-23T11:05:52;16.65;;;3.83;;
52208;SDS011;38507;53.132;6.394;2023-03-23T11:08:29;22.85;;;3.67;;
52208;SDS011;38507;53.132;6.394;2023-03-23T11:13:38;18.73;;;3.50;;
52208;SDS011;38507;53.132;6.394;2023-03-23T11:16:07;19.60;;;2.72;;
52208;SDS011;38507;53.132;6.394;2023-03-23T11:18:40;16.77;;;2.85;;
52208;SDS011;38507;53.132;6.394;2023-03-23T11:21:11;17.75;;;2.63;;
52208;SDS011;38507;53.132;6.394;2023-03-23T11:23:40;15.02;;;2.95;;
52208;SDS011;38507;53.132;6.394;2023-03-23T11:28:59;17.33;;;3.45;;
52208;SDS011;38507;53.132;6.394;2023-03-23T11:31:33;19.98;;;3.67;;
52208;SDS011;38507;53.132;6.394;2023-03-23T11:36:48;17.88;;;2.65;;
52208;SDS011;38507;53.132;6.394;2023-03-23T11:39:27;13.68;;;3.22;;
52208;SDS011;38507;53.132;6.394;2023-03-23T11:41:54;15.32;;;2.63;;
52208;SDS011;38507;53.132;6.394;2023-03-23T11:44:23;13.60;;;2.13;;
52208;SDS011;38507;53.132;6.394;2023-03-23T11:49:57;20.73;;;3.42;;
52208;SDS011;38507;53.132;6.394;2023-03-23T11:52:49;16.75;;;2.60;;
52208;SDS011;38507;53.132;6.394;2023-03-23T11:55:26;11.40;;;2.83;;
52208;SDS011;38507;53.132;6.394;2023-03-23T11:58:00;15.93;;;2.70;;
52208;SDS011;38507;53.132;6.394;2023-03-23T12:00:30;12.98;;;2.30;;
52208;SDS011;38507;53.132;6.394;2023-03-23T12:02:59;11.68;;;2.40;;
52208;SDS011;38507;53.132;6.394;2023-03-23T12:05:35;12.95;;;2.42;;
52208;SDS011;38507;53.132;6.394;2023-03-23T12:11:14;11.68;;;2.35;;
52208;SDS011;38507;53.132;6.394;2023-03-23T12:21:34;21.58;;;2.95;;
52208;SDS011;38507;53.132;6.394;2023-03-23T12:26:50;13.23;;;2.88;;
52208;SDS011;38507;53.132;6.394;2023-03-23T12:29:39;18.52;;;3.00;;
52208;SDS011;38507;53.132;6.394;2023-03-23T12:43:50;15.70;;;3.20;;
52208;SDS011;38507;53.132;6.394;2023-03-23T12:49:21;12.60;;;2.00;;
52208;SDS011;38507;53.132;6.394;2023-03-23T12:51:57;11.90;;;1.85;;
52208;SDS011;38507;53.132;6.394;2023-03-23T12:54:31;19.52;;;2.05;;
52208;SDS011;38507;53.132;6.394;2023-03-23T12:57:09;11.40;;;2.13;;
52208;SDS011;38507;53.132;6.394;2023-03-23T13:05:27;14.13;;;3.40;;
52208;SDS011;38507;53.132;6.394;2023-03-23T13:08:03;12.80;;;2.70;;
52208;SDS011;38507;53.132;6.394;2023-03-23T13:10:48;11.98;;;2.75;;
52208;SDS011;38507;53.132;6.394;2023-03-23T13:16:15;18.73;;;3.17;;
52208;SDS011;38507;53.132;6.394;2023-03-23T13:21:33;19.45;;;3.33;;
52208;SDS011;38507;53.132;6.394;2023-03-23T13:24:23;17.10;;;2.67;;
52208;SDS011;38507;53.132;6.394;2023-03-23T13:26:52;15.05;;;3.30;;
52208;SDS011;38507;53.132;6.394;2023-03-23T13:29:23;20.92;;;3.92;;
52208;SDS011;38507;53.132;6.394;2023-03-23T13:31:50;22.02;;;3.40;;
52208;SDS011;38507;53.132;6.394;2023-03-23T13:34:23;14.30;;;2.90;;
52208;SDS011;38507;53.132;6.394;2023-03-23T13:37:06;19.85;;;3.50;;
52208;SDS011;38507;53.132;6.394;2023-03-23T13:39:47;20.23;;;2.78;;
52208;SDS011;38507;53.132;6.394;2023-03-23T13:42:30;16.92;;;2.75;;
52208;SDS011;38507;53.132;6.394;2023-03-23T13:47:49;21.75;;;3.22;;
52208;SDS011;38507;53.132;6.394;2023-03-23T13:50:44;18.15;;;2.50;;
52208;SDS011;38507;53.132;6.394;2023-03-23T13:53:14;16.73;;;2.75;;
52208;SDS011;38507;53.132;6.394;2023-03-23T13:56:04;21.30;;;2.90;;
52208;SDS011;38507;53.132;6.394;2023-03-23T13:58:31;15.18;;;3.28;;
52208;SDS011;38507;53.132;6.394;2023-03-23T14:01:02;17.67;;;2.47;;
52208;SDS011;38507;53.132;6.394;2023-03-23T14:03:42;19.08;;;3.42;;
52208;SDS011;38507;53.132;6.394;2023-03-23T14:06:15;14.32;;;2.58;;
52208;SDS011;38507;53.132;6.394;2023-03-23T14:08:45;13.25;;;3.22;;
52208;SDS011;38507;53.132;6.394;2023-03-23T14:11:24;18.92;;;2.63;;
52208;SDS011;38507;53.132;6.394;2023-03-23T14:16:36;17.90;;;3.05;;
52208;SDS011;38507;53.132;6.394;2023-03-23T14:19:25;11.52;;;2.50;;
52208;SDS011;38507;53.132;6.394;2023-03-23T14:21:57;12.98;;;2.55;;
52208;SDS011;38507;53.132;6.394;2023-03-23T14:24:25;16.63;;;3.40;;
52208;SDS011;38507;53.132;6.394;2023-03-23T14:27:08;14.85;;;2.90;;
52208;SDS011;38507;53.132;6.394;2023-03-23T14:29:42;13.40;;;2.60;;
52208;SDS011;38507;53.132;6.394;2023-03-23T14:32:12;14.45;;;2.50;;
52208;SDS011;38507;53.132;6.394;2023-03-23T14:34:42;11.07;;;2.03;;
52208;SDS011;38507;53.132;6.394;2023-03-23T14:37:11;13.13;;;2.33;;
52208;SDS011;38507;53.132;6.394;2023-03-23T14:39:39;10.68;;;2.20;;
52208;SDS011;38507;53.132;6.394;2023-03-23T14:42:12;14.68;;;1.83;;
52208;SDS011;38507;53.132;6.394;2023-03-23T14:44:47;10.13;;;1.80;;
52208;SDS011;38507;53.132;6.394;2023-03-23T14:47:33;9.70;;;2.20;;
52208;SDS011;38507;53.132;6.394;2023-03-23T14:50:05;17.35;;;2.40;;
52208;SDS011;38507;53.132;6.394;2023-03-23T14:52:35;12.90;;;2.72;;
52208;SDS011;38507;53.132;6.394;2023-03-23T14:55:11;11.07;;;2.05;;
52208;SDS011;38507;53.132;6.394;2023-03-23T14:57:46;8.80;;;1.55;;
52208;SDS011;38507;53.132;6.394;2023-03-23T15:02:45;12.57;;;2.20;;
52208;SDS011;38507;53.132;6.394;2023-03-23T15:05:19;12.05;;;2.25;;
52208;SDS011;38507;53.132;6.394;2023-03-23T15:07:53;16.17;;;2.38;;
52208;SDS011;38507;53.132;6.394;2023-03-23T15:10:24;6.45;;;1.77;;
52208;SDS011;38507;53.132;6.394;2023-03-23T15:12:50;15.40;;;2.53;;
52208;SDS011;38507;53.132;6.394;2023-03-23T15:15:25;10.80;;;2.05;;
52208;SDS011;38507;53.132;6.394;2023-03-23T15:17:56;11.38;;;2.00;;
52208;SDS011;38507;53.132;6.394;2023-03-23T15:20:24;9.57;;;1.58;;
52208;SDS011;38507;53.132;6.394;2023-03-23T15:22:52;11.80;;;2.20;;
52208;SDS011;38507;53.132;6.394;2023-03-23T15:25:20;6.80;;;1.42;;
52208;SDS011;38507;53.132;6.394;2023-03-23T15:28:18;10.98;;;1.80;;
52208;SDS011;38507;53.132;6.394;2023-03-23T15:30:51;10.73;;;1.52;;
52208;SDS011;38507;53.132;6.394;2023-03-23T15:33:19;15.98;;;2.17;;
52208;SDS011;38507;53.132;6.394;2023-03-23T15:35:51;11.75;;;1.67;;
52208;SDS011;38507;53.132;6.394;2023-03-23T15:38:25;13.80;;;2.55;;
52208;SDS011;38507;53.132;6.394;2023-03-23T15:40:55;9.35;;;1.92;;
52208;SDS011;38507;53.132;6.394;2023-03-23T15:43:26;13.73;;;2.42;;
52208;SDS011;38507;53.132;6.394;2023-03-23T15:48:25;14.15;;;2.85;;
52208;SDS011;38507;53.132;6.394;2023-03-23T15:50:52;16.63;;;2.80;;
52208;SDS011;38507;53.132;6.394;2023-03-23T15:53:31;12.98;;;1.92;;
52208;SDS011;38507;53.132;6.394;2023-03-23T15:55:59;14.48;;;2.63;;
52208;SDS011;38507;53.132;6.394;2023-03-23T15:58:26;14.65;;;2.28;;
52208;SDS011;38507;53.132;6.394;2023-03-23T16:00:52;11.38;;;2.20;;
52208;SDS011;38507;53.132;6.394;2023-03-23T16:03:20;14.95;;;2.90;;
52208;SDS011;38507;53.132;6.394;2023-03-23T16:06:08;23.48;;;3.60;;
52208;SDS011;38507;53.132;6.394;2023-03-23T16:08:38;17.50;;;3.72;;
52208;SDS011;38507;53.132;6.394;2023-03-23T16:11:10;17.65;;;2.92;;
52208;SDS011;38507;53.132;6.394;2023-03-23T16:13:37;17.65;;;2.95;;
52208;SDS011;38507;53.132;6.394;2023-03-23T16:16:03;14.43;;;3.15;;
52208;SDS011;38507;53.132;6.394;2023-03-23T16:18:32;19.17;;;3.13;;
52208;SDS011;38507;53.132;6.394;2023-03-23T16:20:58;22.05;;;4.43;;
52208;SDS011;38507;53.132;6.394;2023-03-23T16:23:25;16.98;;;2.75;;
52208;SDS011;38507;53.132;6.394;2023-03-23T16:25:51;24.65;;;4.15;;
52208;SDS011;38507;53.132;6.394;2023-03-23T16:28:16;17.60;;;3.50;;
52208;SDS011;38507;53.132;6.394;2023-03-23T16:30:45;16.00;;;3.13;;
52208;SDS011;38507;53.132;6.394;2023-03-23T16:33:11;17.83;;;3.15;;
52208;SDS011;38507;53.132;6.394;2023-03-23T16:35:37;17.77;;;3.22;;
52208;SDS011;38507;53.132;6.394;2023-03-23T16:38:03;23.52;;;3.13;;